sensor_id;sensor_type;location;lat;lon;timestamp;temperature;humidity
68609;SHT31;55581;46.718;7.690;2023-04-24T00:00:41;10.23;74.63
68609;SHT31;55581;46.718;7.690;2023-04-24T00:03:09;10.23;74.03
68609;SHT31;55581;46.718;7.690;2023-04-24T00:05:38;10.18;75.10
68609;SHT31;55581;46.718;7.690;2023-04-24T00:08:07;10.15;75.00
68609;SHT31;55581;46.718;7.690;2023-04-24T00:10:33;10.16;74.42
68609;SHT31;55581;46.718;7.690;2023-04-24T00:13:00;10.11;74.52
68609;SHT31;55581;46.718;7.690;2023-04-24T00:15:28;10.06;76.31
68609;SHT31;55581;46.718;7.690;2023-04-24T00:17:53;10.09;75.56
68609;SHT31;55581;46.718;7.690;2023-04-24T00:20:19;10.03;75.87
68609;SHT31;55581;46.718;7.690;2023-04-24T00:22:45;10.02;76.22
68609;SHT31;55581;46.718;7.690;2023-04-24T00:25:10;10.02;76.31
68609;SHT31;55581;46.718;7.690;2023-04-24T00:27:38;9.94;75.44
68609;SHT31;55581;46.718;7.690;2023-04-24T00:30:04;9.90;75.69
68609;SHT31;55581;46.718;7.690;2023-04-24T00:32:30;9.85;75.75
68609;SHT31;55581;46.718;7.690;2023-04-24T00:34:55;9.87;76.19
68609;SHT31;55581;46.718;7.690;2023-04-24T00:37:21;9.88;76.27
68609;SHT31;55581;46.718;7.690;2023-04-24T00:39:46;9.94;76.67
68609;SHT31;55581;46.718;7.690;2023-04-24T00:42:11;9.92;76.30
68609;SHT31;55581;46.718;7.690;2023-04-24T00:44:39;9.85;77.41
68609;SHT31;55581;46.718;7.690;2023-04-24T00:47:05;9.85;76.81
68609;SHT31;55581;46.718;7.690;2023-04-24T00:49:34;9.77;77.36
68609;SHT31;55581;46.718;7.690;2023-04-24T00:52:01;9.71;77.99
68609;SHT31;55581;46.718;7.690;2023-04-24T00:54:27;9.69;78.13
68609;SHT31;55581;46.718;7.690;2023-04-24T00:56:52;9.63;77.62
68609;SHT31;55581;46.718;7.690;2023-04-24T00:59:18;9.60;78.65
68609;SHT31;55581;46.718;7.690;2023-04-24T01:01:44;9.56;78.58
68609;SHT31;55581;46.718;7.690;2023-04-24T01:04:12;9.46;81.38
68609;SHT31;55581;46.718;7.690;2023-04-24T01:06:39;9.39;82.60
68609;SHT31;55581;46.718;7.690;2023-04-24T01:09:05;9.32;84.28
68609;SHT31;55581;46.718;7.690;2023-04-24T01:11:34;9.29;85.09
68609;SHT31;55581;46.718;7.690;2023-04-24T01:13:59;9.36;84.92
68609;SHT31;55581;46.718;7.690;2023-04-24T01:16:25;9.29;85.15
68609;SHT31;55581;46.718;7.690;2023-04-24T01:18:51;9.29;88.07
68609;SHT31;55581;46.718;7.690;2023-04-24T01:21:20;9.29;88.20
68609;SHT31;55581;46.718;7.690;2023-04-24T01:23:46;9.27;88.13
68609;SHT31;55581;46.718;7.690;2023-04-24T01:26:16;8.99;88.21
68609;SHT31;55581;46.718;7.690;2023-04-24T01:28:45;9.04;88.64
68609;SHT31;55581;46.718;7.690;2023-04-24T01:31:11;9.05;90.22
68609;SHT31;55581;46.718;7.690;2023-04-24T01:33:37;8.89;89.81
68609;SHT31;55581;46.718;7.690;2023-04-24T01:36:02;8.87;89.64
68609;SHT31;55581;46.718;7.690;2023-04-24T01:38:28;8.78;89.81
68609;SHT31;55581;46.718;7.690;2023-04-24T01:40:53;8.81;89.89
68609;SHT31;55581;46.718;7.690;2023-04-24T01:43:19;8.72;90.24
68609;SHT31;55581;46.718;7.690;2023-04-24T01:45:44;8.72;89.41
68609;SHT31;55581;46.718;7.690;2023-04-24T01:48:11;8.65;90.13
68609;SHT31;55581;46.718;7.690;2023-04-24T01:50:39;8.64;90.78
68609;SHT31;55581;46.718;7.690;2023-04-24T01:53:05;8.59;90.16
68609;SHT31;55581;46.718;7.690;2023-04-24T01:55:30;8.54;89.14
68609;SHT31;55581;46.718;7.690;2023-04-24T01:57:56;8.39;90.17
68609;SHT31;55581;46.718;7.690;2023-04-24T02:00:22;8.44;91.25
68609;SHT31;55581;46.718;7.690;2023-04-24T02:02:50;8.39;92.18
68609;SHT31;55581;46.718;7.690;2023-04-24T02:05:15;8.37;92.44
68609;SHT31;55581;46.718;7.690;2023-04-24T02:07:41;8.33;92.28
68609;SHT31;55581;46.718;7.690;2023-04-24T02:10:07;8.32;93.27
68609;SHT31;55581;46.718;7.690;2023-04-24T02:12:32;8.42;93.50
68609;SHT31;55581;46.718;7.690;2023-04-24T02:15:00;8.57;92.16
68609;SHT31;55581;46.718;7.690;2023-04-24T02:17:25;8.64;91.11
68609;SHT31;55581;46.718;7.690;2023-04-24T02:19:51;8.70;90.08
68609;SHT31;55581;46.718;7.690;2023-04-24T02:22:17;8.82;87.17
68609;SHT31;55581;46.718;7.690;2023-04-24T02:24:42;8.91;86.95
68609;SHT31;55581;46.718;7.690;2023-04-24T02:27:07;8.99;87.52
68609;SHT31;55581;46.718;7.690;2023-04-24T02:29:36;9.01;86.88
68609;SHT31;55581;46.718;7.690;2023-04-24T02:32:01;9.05;87.14
68609;SHT31;55581;46.718;7.690;2023-04-24T02:34:27;8.97;88.25
68609;SHT31;55581;46.718;7.690;2023-04-24T02:36:52;8.95;88.50
68609;SHT31;55581;46.718;7.690;2023-04-24T02:39:19;8.97;89.43
68609;SHT31;55581;46.718;7.690;2023-04-24T02:41:44;8.97;90.87
68609;SHT31;55581;46.718;7.690;2023-04-24T02:44:10;8.93;90.80
68609;SHT31;55581;46.718;7.690;2023-04-24T02:46:35;8.93;89.43
68609;SHT31;55581;46.718;7.690;2023-04-24T02:49:01;8.91;88.73
68609;SHT31;55581;46.718;7.690;2023-04-24T02:51:26;8.91;89.34
68609;SHT31;55581;46.718;7.690;2023-04-24T02:53:52;8.85;87.86
68609;SHT31;55581;46.718;7.690;2023-04-24T02:56:18;8.92;82.16
68609;SHT31;55581;46.718;7.690;2023-04-24T02:58:48;8.89;81.09
68609;SHT31;55581;46.718;7.690;2023-04-24T03:01:13;8.99;83.45
68609;SHT31;55581;46.718;7.690;2023-04-24T03:03:39;9.01;83.35
68609;SHT31;55581;46.718;7.690;2023-04-24T03:06:05;8.98;83.01
68609;SHT31;55581;46.718;7.690;2023-04-24T03:08:34;8.92;85.48
68609;SHT31;55581;46.718;7.690;2023-04-24T03:10:59;8.84;86.29
68609;SHT31;55581;46.718;7.690;2023-04-24T03:13:25;8.63;86.63
68609;SHT31;55581;46.718;7.690;2023-04-24T03:15:51;8.64;84.06
68609;SHT31;55581;46.718;7.690;2023-04-24T03:18:16;8.61;82.46
68609;SHT31;55581;46.718;7.690;2023-04-24T03:20:42;8.65;81.43
68609;SHT31;55581;46.718;7.690;2023-04-24T03:23:07;8.49;86.66
68609;SHT31;55581;46.718;7.690;2023-04-24T03:25:33;8.53;80.12
68609;SHT31;55581;46.718;7.690;2023-04-24T03:27:58;8.59;81.95
68609;SHT31;55581;46.718;7.690;2023-04-24T03:30:24;8.50;83.11
68609;SHT31;55581;46.718;7.690;2023-04-24T03:32:49;8.49;84.82
68609;SHT31;55581;46.718;7.690;2023-04-24T03:35:14;8.46;88.22
68609;SHT31;55581;46.718;7.690;2023-04-24T03:37:40;8.37;85.47
68609;SHT31;55581;46.718;7.690;2023-04-24T03:40:06;8.39;85.35
68609;SHT31;55581;46.718;7.690;2023-04-24T03:42:32;8.36;87.79
68609;SHT31;55581;46.718;7.690;2023-04-24T03:45:00;8.36;86.37
68609;SHT31;55581;46.718;7.690;2023-04-24T03:47:25;8.36;82.87
68609;SHT31;55581;46.718;7.690;2023-04-24T03:49:50;8.40;83.26
68609;SHT31;55581;46.718;7.690;2023-04-24T03:52:16;8.42;82.53
68609;SHT31;55581;46.718;7.690;2023-04-24T03:54:42;8.44;82.56
68609;SHT31;55581;46.718;7.690;2023-04-24T03:57:07;8.49;81.37
68609;SHT31;55581;46.718;7.690;2023-04-24T03:59:32;8.53;80.40
68609;SHT31;55581;46.718;7.690;2023-04-24T04:01:58;8.54;80.85
68609;SHT31;55581;46.718;7.690;2023-04-24T04:04:23;8.50;83.27
68609;SHT31;55581;46.718;7.690;2023-04-24T04:06:49;8.46;86.01
68609;SHT31;55581;46.718;7.690;2023-04-24T04:09:14;8.39;87.79
68609;SHT31;55581;46.718;7.690;2023-04-24T04:11:40;8.40;83.11
68609;SHT31;55581;46.718;7.690;2023-04-24T04:14:08;8.39;86.05
68609;SHT31;55581;46.718;7.690;2023-04-24T04:16:33;8.30;85.54
68609;SHT31;55581;46.718;7.690;2023-04-24T04:18:58;8.29;83.74
68609;SHT31;55581;46.718;7.690;2023-04-24T04:21:24;8.32;84.74
68609;SHT31;55581;46.718;7.690;2023-04-24T04:23:49;8.30;86.15
68609;SHT31;55581;46.718;7.690;2023-04-24T04:26:15;8.37;81.52
68609;SHT31;55581;46.718;7.690;2023-04-24T04:28:41;8.40;82.26
68609;SHT31;55581;46.718;7.690;2023-04-24T04:31:06;8.42;81.90
68609;SHT31;55581;46.718;7.690;2023-04-24T04:33:33;8.36;84.41
68609;SHT31;55581;46.718;7.690;2023-04-24T04:35:58;8.23;87.03
68609;SHT31;55581;46.718;7.690;2023-04-24T04:38:25;8.23;85.97
68609;SHT31;55581;46.718;7.690;2023-04-24T04:40:51;8.03;87.87
68609;SHT31;55581;46.718;7.690;2023-04-24T04:43:17;8.05;88.39
68609;SHT31;55581;46.718;7.690;2023-04-24T04:45:42;8.19;85.09
68609;SHT31;55581;46.718;7.690;2023-04-24T04:48:10;8.28;83.13
68609;SHT31;55581;46.718;7.690;2023-04-24T04:50:38;8.37;84.04
68609;SHT31;55581;46.718;7.690;2023-04-24T04:53:04;8.36;83.14
68609;SHT31;55581;46.718;7.690;2023-04-24T04:55:29;8.44;83.00
68609;SHT31;55581;46.718;7.690;2023-04-24T04:57:55;8.40;86.28
68609;SHT31;55581;46.718;7.690;2023-04-24T05:00:23;8.26;87.58
68609;SHT31;55581;46.718;7.690;2023-04-24T05:02:52;8.23;88.80
68609;SHT31;55581;46.718;7.690;2023-04-24T05:05:18;8.22;87.52
68609;SHT31;55581;46.718;7.690;2023-04-24T05:07:44;8.15;89.84
68609;SHT31;55581;46.718;7.690;2023-04-24T05:10:09;8.22;89.17
68609;SHT31;55581;46.718;7.690;2023-04-24T05:12:38;8.16;89.11
68609;SHT31;55581;46.718;7.690;2023-04-24T05:15:06;8.15;90.17
68609;SHT31;55581;46.718;7.690;2023-04-24T05:17:31;8.19;90.85
68609;SHT31;55581;46.718;7.690;2023-04-24T05:19:57;8.25;90.47
68609;SHT31;55581;46.718;7.690;2023-04-24T05:22:22;8.26;90.82
68609;SHT31;55581;46.718;7.690;2023-04-24T05:24:49;8.26;91.55
68609;SHT31;55581;46.718;7.690;2023-04-24T05:27:14;8.30;89.54
68609;SHT31;55581;46.718;7.690;2023-04-24T05:29:40;8.36;87.13
68609;SHT31;55581;46.718;7.690;2023-04-24T05:32:05;8.37;88.50
68609;SHT31;55581;46.718;7.690;2023-04-24T05:34:31;8.39;88.01
68609;SHT31;55581;46.718;7.690;2023-04-24T05:36:57;8.43;87.52
68609;SHT31;55581;46.718;7.690;2023-04-24T05:39:22;8.49;88.66
68609;SHT31;55581;46.718;7.690;2023-04-24T05:41:50;8.52;88.77
68609;SHT31;55581;46.718;7.690;2023-04-24T05:44:15;8.63;88.08
68609;SHT31;55581;46.718;7.690;2023-04-24T05:46:40;8.70;88.54
68609;SHT31;55581;46.718;7.690;2023-04-24T05:49:09;8.75;89.29
68609;SHT31;55581;46.718;7.690;2023-04-24T05:51:34;8.81;89.36
68609;SHT31;55581;46.718;7.690;2023-04-24T05:54:00;8.88;88.78
68609;SHT31;55581;46.718;7.690;2023-04-24T05:56:26;8.99;87.23
68609;SHT31;55581;46.718;7.690;2023-04-24T05:58:52;9.02;85.33
68609;SHT31;55581;46.718;7.690;2023-04-24T06:01:17;9.04;84.28
68609;SHT31;55581;46.718;7.690;2023-04-24T06:03:43;8.99;84.64
68609;SHT31;55581;46.718;7.690;2023-04-24T06:06:08;9.01;82.83
68609;SHT31;55581;46.718;7.690;2023-04-24T06:08:34;9.07;82.91
68609;SHT31;55581;46.718;7.690;2023-04-24T06:11:00;9.11;82.64
68609;SHT31;55581;46.718;7.690;2023-04-24T06:13:26;9.02;83.55
68609;SHT31;55581;46.718;7.690;2023-04-24T06:15:52;9.02;86.07
68609;SHT31;55581;46.718;7.690;2023-04-24T06:18:19;8.99;86.69
68609;SHT31;55581;46.718;7.690;2023-04-24T06:20:46;9.08;84.58
68609;SHT31;55581;46.718;7.690;2023-04-24T06:23:11;9.07;86.05
68609;SHT31;55581;46.718;7.690;2023-04-24T06:25:37;9.11;86.29
68609;SHT31;55581;46.718;7.690;2023-04-24T06:28:03;9.18;83.97
68609;SHT31;55581;46.718;7.690;2023-04-24T06:30:31;9.12;87.47
68609;SHT31;55581;46.718;7.690;2023-04-24T06:32:57;9.16;88.56
68609;SHT31;55581;46.718;7.690;2023-04-24T06:35:22;9.25;87.77
68609;SHT31;55581;46.718;7.690;2023-04-24T06:37:48;9.16;89.25
68609;SHT31;55581;46.718;7.690;2023-04-24T06:40:14;9.19;90.23
68609;SHT31;55581;46.718;7.690;2023-04-24T06:42:43;9.26;89.59
68609;SHT31;55581;46.718;7.690;2023-04-24T06:45:09;9.20;87.39
68609;SHT31;55581;46.718;7.690;2023-04-24T06:47:35;9.32;84.98
68609;SHT31;55581;46.718;7.690;2023-04-24T06:50:00;9.43;84.11
68609;SHT31;55581;46.718;7.690;2023-04-24T06:52:26;9.26;83.16
68609;SHT31;55581;46.718;7.690;2023-04-24T06:54:51;9.35;81.45
68609;SHT31;55581;46.718;7.690;2023-04-24T06:57:17;9.27;84.18
68609;SHT31;55581;46.718;7.690;2023-04-24T06:59:42;9.32;84.33
68609;SHT31;55581;46.718;7.690;2023-04-24T07:02:08;9.20;86.07
68609;SHT31;55581;46.718;7.690;2023-04-24T07:04:33;9.18;85.74
68609;SHT31;55581;46.718;7.690;2023-04-24T07:06:59;8.97;89.89
68609;SHT31;55581;46.718;7.690;2023-04-24T07:09:25;9.14;90.64
68609;SHT31;55581;46.718;7.690;2023-04-24T07:11:51;9.35;89.99
68609;SHT31;55581;46.718;7.690;2023-04-24T07:14:17;9.51;87.51
68609;SHT31;55581;46.718;7.690;2023-04-24T07:16:45;9.73;88.33
68609;SHT31;55581;46.718;7.690;2023-04-24T07:19:12;9.87;87.54
68609;SHT31;55581;46.718;7.690;2023-04-24T07:21:38;9.94;86.57
68609;SHT31;55581;46.718;7.690;2023-04-24T07:24:03;9.92;87.66
68609;SHT31;55581;46.718;7.690;2023-04-24T07:26:29;9.85;84.72
68609;SHT31;55581;46.718;7.690;2023-04-24T07:28:55;9.80;85.07
68609;SHT31;55581;46.718;7.690;2023-04-24T07:31:23;9.85;84.07
68609;SHT31;55581;46.718;7.690;2023-04-24T07:33:48;9.88;86.97
68609;SHT31;55581;46.718;7.690;2023-04-24T07:36:14;9.87;86.75
68609;SHT31;55581;46.718;7.690;2023-04-24T07:38:46;9.85;86.93
68609;SHT31;55581;46.718;7.690;2023-04-24T07:41:13;9.97;87.22
68609;SHT31;55581;46.718;7.690;2023-04-24T07:43:38;9.91;86.81
68609;SHT31;55581;46.718;7.690;2023-04-24T07:46:07;9.92;85.96
68609;SHT31;55581;46.718;7.690;2023-04-24T07:48:32;9.98;85.34
68609;SHT31;55581;46.718;7.690;2023-04-24T07:50:58;9.98;85.35
68609;SHT31;55581;46.718;7.690;2023-04-24T07:53:25;10.06;85.20
68609;SHT31;55581;46.718;7.690;2023-04-24T07:55:54;10.26;84.84
68609;SHT31;55581;46.718;7.690;2023-04-24T07:58:20;10.32;83.86
68609;SHT31;55581;46.718;7.690;2023-04-24T08:00:49;10.26;84.62
68609;SHT31;55581;46.718;7.690;2023-04-24T08:03:14;10.03;84.10
68609;SHT31;55581;46.718;7.690;2023-04-24T08:05:43;10.03;81.90
68609;SHT31;55581;46.718;7.690;2023-04-24T08:08:08;10.06;82.43
68609;SHT31;55581;46.718;7.690;2023-04-24T08:10:34;10.12;82.10
68609;SHT31;55581;46.718;7.690;2023-04-24T08:12:59;10.26;80.31
68609;SHT31;55581;46.718;7.690;2023-04-24T08:15:27;10.39;82.18
68609;SHT31;55581;46.718;7.690;2023-04-24T08:17:52;10.50;78.81
68609;SHT31;55581;46.718;7.690;2023-04-24T08:20:18;10.50;76.53
68609;SHT31;55581;46.718;7.690;2023-04-24T08:22:43;10.59;79.02
68609;SHT31;55581;46.718;7.690;2023-04-24T08:25:10;10.60;79.41
68609;SHT31;55581;46.718;7.690;2023-04-24T08:27:38;10.57;79.36
68609;SHT31;55581;46.718;7.690;2023-04-24T08:30:06;10.52;78.68
68609;SHT31;55581;46.718;7.690;2023-04-24T08:32:32;10.45;78.83
68609;SHT31;55581;46.718;7.690;2023-04-24T08:34:58;10.43;81.65
68609;SHT31;55581;46.718;7.690;2023-04-24T08:37:25;10.43;83.70
68609;SHT31;55581;46.718;7.690;2023-04-24T08:39:50;10.47;83.80
68609;SHT31;55581;46.718;7.690;2023-04-24T08:42:17;10.67;82.71
68609;SHT31;55581;46.718;7.690;2023-04-24T08:44:43;10.87;80.58
68609;SHT31;55581;46.718;7.690;2023-04-24T08:47:09;11.01;77.63
68609;SHT31;55581;46.718;7.690;2023-04-24T08:49:40;11.05;79.95
68609;SHT31;55581;46.718;7.690;2023-04-24T08:52:05;11.18;80.93
68609;SHT31;55581;46.718;7.690;2023-04-24T08:54:34;11.28;78.51
68609;SHT31;55581;46.718;7.690;2023-04-24T08:57:03;11.35;78.65
68609;SHT31;55581;46.718;7.690;2023-04-24T08:59:30;11.47;79.27
68609;SHT31;55581;46.718;7.690;2023-04-24T09:01:59;11.57;78.03
68609;SHT31;55581;46.718;7.690;2023-04-24T09:04:25;11.53;78.93
68609;SHT31;55581;46.718;7.690;2023-04-24T09:06:55;11.60;76.92
68609;SHT31;55581;46.718;7.690;2023-04-24T09:09:24;12.01;75.33
68609;SHT31;55581;46.718;7.690;2023-04-24T09:11:52;12.22;73.38
68609;SHT31;55581;46.718;7.690;2023-04-24T09:14:20;12.33;70.43
68609;SHT31;55581;46.718;7.690;2023-04-24T09:16:46;12.73;71.68
68609;SHT31;55581;46.718;7.690;2023-04-24T09:19:12;13.12;71.06
68609;SHT31;55581;46.718;7.690;2023-04-24T09:21:38;13.14;69.53
68609;SHT31;55581;46.718;7.690;2023-04-24T09:24:08;12.66;67.90
68609;SHT31;55581;46.718;7.690;2023-04-24T09:26:39;12.39;68.78
68609;SHT31;55581;46.718;7.690;2023-04-24T09:29:04;12.01;66.36
68609;SHT31;55581;46.718;7.690;2023-04-24T09:31:30;11.67;67.42
68609;SHT31;55581;46.718;7.690;2023-04-24T09:34:03;11.35;69.36
68609;SHT31;55581;46.718;7.690;2023-04-24T09:36:32;11.12;69.91
68609;SHT31;55581;46.718;7.690;2023-04-24T09:39:00;10.88;69.64
68609;SHT31;55581;46.718;7.690;2023-04-24T09:41:26;10.70;71.25
68609;SHT31;55581;46.718;7.690;2023-04-24T09:43:56;10.94;72.35
68609;SHT31;55581;46.718;7.690;2023-04-24T09:46:29;11.00;73.46
68609;SHT31;55581;46.718;7.690;2023-04-24T09:48:55;11.18;74.63
68609;SHT31;55581;46.718;7.690;2023-04-24T09:51:34;10.74;71.84
68609;SHT31;55581;46.718;7.690;2023-04-24T09:54:01;10.68;72.81
68609;SHT31;55581;46.718;7.690;2023-04-24T09:56:26;10.60;71.46
68609;SHT31;55581;46.718;7.690;2023-04-24T09:58:52;10.60;70.34
68609;SHT31;55581;46.718;7.690;2023-04-24T10:01:30;10.61;72.04
68609;SHT31;55581;46.718;7.690;2023-04-24T10:03:57;10.71;71.47
68609;SHT31;55581;46.718;7.690;2023-04-24T10:06:31;10.66;70.03
68609;SHT31;55581;46.718;7.690;2023-04-24T10:08:56;10.59;68.30
68609;SHT31;55581;46.718;7.690;2023-04-24T10:11:25;10.50;68.89
68609;SHT31;55581;46.718;7.690;2023-04-24T10:13:51;10.63;69.36
68609;SHT31;55581;46.718;7.690;2023-04-24T10:16:20;10.63;68.08
68609;SHT31;55581;46.718;7.690;2023-04-24T10:18:48;10.87;69.68
68609;SHT31;55581;46.718;7.690;2023-04-24T10:21:14;10.85;67.46
68609;SHT31;55581;46.718;7.690;2023-04-24T10:23:41;11.01;66.43
68609;SHT31;55581;46.718;7.690;2023-04-24T10:26:09;10.94;67.05
68609;SHT31;55581;46.718;7.690;2023-04-24T10:28:38;10.87;68.74
68609;SHT31;55581;46.718;7.690;2023-04-24T10:31:04;10.77;68.30
68609;SHT31;55581;46.718;7.690;2023-04-24T10:33:30;10.84;67.30
68609;SHT31;55581;46.718;7.690;2023-04-24T10:35:56;10.97;66.81
68609;SHT31;55581;46.718;7.690;2023-04-24T10:38:25;11.15;66.20
68609;SHT31;55581;46.718;7.690;2023-04-24T10:40:57;11.21;67.34
68609;SHT31;55581;46.718;7.690;2023-04-24T10:43:34;11.35;66.54
68609;SHT31;55581;46.718;7.690;2023-04-24T10:46:04;11.56;66.09
68609;SHT31;55581;46.718;7.690;2023-04-24T10:48:31;11.73;65.29
68609;SHT31;55581;46.718;7.690;2023-04-24T10:50:57;11.99;66.15
68609;SHT31;55581;46.718;7.690;2023-04-24T10:53:28;12.06;63.42
68609;SHT31;55581;46.718;7.690;2023-04-24T10:56:05;12.12;64.54
68609;SHT31;55581;46.718;7.690;2023-04-24T10:58:41;12.43;63.73
68609;SHT31;55581;46.718;7.690;2023-04-24T11:03:58;12.35;61.93
68609;SHT31;55581;46.718;7.690;2023-04-24T11:06:34;12.48;64.23
68609;SHT31;55581;46.718;7.690;2023-04-24T11:09:08;12.49;63.19
68609;SHT31;55581;46.718;7.690;2023-04-24T11:11:38;12.55;63.68
68609;SHT31;55581;46.718;7.690;2023-04-24T11:14:06;12.60;63.20
68609;SHT31;55581;46.718;7.690;2023-04-24T11:16:42;12.39;61.88
68609;SHT31;55581;46.718;7.690;2023-04-24T11:21:47;12.53;63.05
68609;SHT31;55581;46.718;7.690;2023-04-24T11:27:21;12.75;60.00
68609;SHT31;55581;46.718;7.690;2023-04-24T11:32:42;13.26;58.58
68609;SHT31;55581;46.718;7.690;2023-04-24T11:35:14;13.41;60.02
68609;SHT31;55581;46.718;7.690;2023-04-24T11:37:42;13.36;61.20
68609;SHT31;55581;46.718;7.690;2023-04-24T11:40:14;13.16;58.77
68609;SHT31;55581;46.718;7.690;2023-04-24T11:42:46;13.35;60.09
68609;SHT31;55581;46.718;7.690;2023-04-24T11:45:14;13.42;57.35
68609;SHT31;55581;46.718;7.690;2023-04-24T11:47:40;13.76;58.71
68609;SHT31;55581;46.718;7.690;2023-04-24T11:50:14;14.18;57.47
68609;SHT31;55581;46.718;7.690;2023-04-24T11:52:41;14.26;56.09
68609;SHT31;55581;46.718;7.690;2023-04-24T11:55:27;14.14;56.14
68609;SHT31;55581;46.718;7.690;2023-04-24T11:57:57;14.41;54.43
68609;SHT31;55581;46.718;7.690;2023-04-24T12:00:27;14.11;53.10
68609;SHT31;55581;46.718;7.690;2023-04-24T12:03:07;13.84;54.69
68609;SHT31;55581;46.718;7.690;2023-04-24T12:05:33;13.98;55.35
68609;SHT31;55581;46.718;7.690;2023-04-24T12:07:59;14.00;52.86
68609;SHT31;55581;46.718;7.690;2023-04-24T12:10:27;14.04;52.91
68609;SHT31;55581;46.718;7.690;2023-04-24T12:12:55;14.29;54.64
68609;SHT31;55581;46.718;7.690;2023-04-24T12:15:21;14.52;50.31
68609;SHT31;55581;46.718;7.690;2023-04-24T12:17:51;15.07;49.46
68609;SHT31;55581;46.718;7.690;2023-04-24T12:20:16;15.31;50.55
68609;SHT31;55581;46.718;7.690;2023-04-24T12:22:47;15.21;47.52
68609;SHT31;55581;46.718;7.690;2023-04-24T12:25:14;15.23;50.52
68609;SHT31;55581;46.718;7.690;2023-04-24T12:27:40;15.16;48.95
68609;SHT31;55581;46.718;7.690;2023-04-24T12:30:10;15.23;50.25
68609;SHT31;55581;46.718;7.690;2023-04-24T12:32:48;15.16;49.69
68609;SHT31;55581;46.718;7.690;2023-04-24T12:35:19;15.31;45.97
68609;SHT31;55581;46.718;7.690;2023-04-24T12:37:45;15.62;49.35
68609;SHT31;55581;46.718;7.690;2023-04-24T12:40:12;15.76;46.53
68609;SHT31;55581;46.718;7.690;2023-04-24T12:42:46;15.54;46.59
68609;SHT31;55581;46.718;7.690;2023-04-24T12:45:15;15.25;46.77
68609;SHT31;55581;46.718;7.690;2023-04-24T12:47:42;14.63;47.53
68609;SHT31;55581;46.718;7.690;2023-04-24T12:50:09;14.14;50.19
68609;SHT31;55581;46.718;7.690;2023-04-24T12:52:35;14.35;51.28
68609;SHT31;55581;46.718;7.690;2023-04-24T12:55:01;14.34;53.92
68609;SHT31;55581;46.718;7.690;2023-04-24T12:57:28;14.24;53.17
68609;SHT31;55581;46.718;7.690;2023-04-24T12:59:55;14.04;52.76
68609;SHT31;55581;46.718;7.690;2023-04-24T13:02:24;13.96;54.37
68609;SHT31;55581;46.718;7.690;2023-04-24T13:04:50;13.80;54.34
68609;SHT31;55581;46.718;7.690;2023-04-24T13:07:18;13.96;55.03
68609;SHT31;55581;46.718;7.690;2023-04-24T13:09:44;13.94;54.20
68609;SHT31;55581;46.718;7.690;2023-04-24T13:12:14;13.88;54.20
68609;SHT31;55581;46.718;7.690;2023-04-24T13:14:42;14.22;54.38
68609;SHT31;55581;46.718;7.690;2023-04-24T13:17:07;14.14;52.69
68609;SHT31;55581;46.718;7.690;2023-04-24T13:19:40;14.04;53.11
68609;SHT31;55581;46.718;7.690;2023-04-24T13:22:06;13.88;54.55
68609;SHT31;55581;46.718;7.690;2023-04-24T13:24:33;13.87;54.64
68609;SHT31;55581;46.718;7.690;2023-04-24T13:26:58;13.97;55.95
68609;SHT31;55581;46.718;7.690;2023-04-24T13:29:25;14.32;53.69
68609;SHT31;55581;46.718;7.690;2023-04-24T13:31:51;14.21;53.08
68609;SHT31;55581;46.718;7.690;2023-04-24T13:34:17;14.21;55.17
68609;SHT31;55581;46.718;7.690;2023-04-24T13:36:43;14.34;52.93
68609;SHT31;55581;46.718;7.690;2023-04-24T13:39:09;14.49;51.70
68609;SHT31;55581;46.718;7.690;2023-04-24T13:41:35;14.55;50.63
68609;SHT31;55581;46.718;7.690;2023-04-24T13:44:04;14.32;51.95
68609;SHT31;55581;46.718;7.690;2023-04-24T13:46:29;14.18;51.43
68609;SHT31;55581;46.718;7.690;2023-04-24T13:48:55;14.17;51.38
68609;SHT31;55581;46.718;7.690;2023-04-24T13:51:22;14.07;50.16
68609;SHT31;55581;46.718;7.690;2023-04-24T13:53:47;14.38;50.81
68609;SHT31;55581;46.718;7.690;2023-04-24T13:56:13;14.76;50.38
68609;SHT31;55581;46.718;7.690;2023-04-24T13:58:39;14.66;48.95
68609;SHT31;55581;46.718;7.690;2023-04-24T14:01:04;14.45;49.92
68609;SHT31;55581;46.718;7.690;2023-04-24T14:03:30;14.53;49.78
68609;SHT31;55581;46.718;7.690;2023-04-24T14:05:58;14.58;51.29
68609;SHT31;55581;46.718;7.690;2023-04-24T14:08:23;14.62;50.16
68609;SHT31;55581;46.718;7.690;2023-04-24T14:10:49;14.59;48.46
68609;SHT31;55581;46.718;7.690;2023-04-24T14:13:15;14.61;48.96
68609;SHT31;55581;46.718;7.690;2023-04-24T14:15:41;14.42;47.59
68609;SHT31;55581;46.718;7.690;2023-04-24T14:18:06;14.26;48.90
68609;SHT31;55581;46.718;7.690;2023-04-24T14:20:32;14.39;47.13
68609;SHT31;55581;46.718;7.690;2023-04-24T14:23:00;14.42;47.76
68609;SHT31;55581;46.718;7.690;2023-04-24T14:25:25;14.63;48.83
68609;SHT31;55581;46.718;7.690;2023-04-24T14:27:51;14.81;47.86
68609;SHT31;55581;46.718;7.690;2023-04-24T14:30:17;15.06;45.66
68609;SHT31;55581;46.718;7.690;2023-04-24T14:32:43;14.97;46.71
68609;SHT31;55581;46.718;7.690;2023-04-24T14:35:08;15.12;46.29
68609;SHT31;55581;46.718;7.690;2023-04-24T14:37:34;14.94;46.46
68609;SHT31;55581;46.718;7.690;2023-04-24T14:39:59;14.96;45.24
68609;SHT31;55581;46.718;7.690;2023-04-24T14:42:25;14.93;45.29
68609;SHT31;55581;46.718;7.690;2023-04-24T14:44:50;14.73;41.92
68609;SHT31;55581;46.718;7.690;2023-04-24T14:47:16;14.80;43.84
68609;SHT31;55581;46.718;7.690;2023-04-24T14:49:45;15.08;42.77
68609;SHT31;55581;46.718;7.690;2023-04-24T14:52:10;15.32;39.16
68609;SHT31;55581;46.718;7.690;2023-04-24T14:54:36;15.30;41.37
68609;SHT31;55581;46.718;7.690;2023-04-24T14:57:01;15.59;41.60
68609;SHT31;55581;46.718;7.690;2023-04-24T14:59:28;15.86;41.79
68609;SHT31;55581;46.718;7.690;2023-04-24T15:01:53;16.01;42.71
68609;SHT31;55581;46.718;7.690;2023-04-24T15:04:26;16.24;44.20
68609;SHT31;55581;46.718;7.690;2023-04-24T15:06:52;16.18;41.19
68609;SHT31;55581;46.718;7.690;2023-04-24T15:09:21;16.34;41.49
68609;SHT31;55581;46.718;7.690;2023-04-24T15:11:48;15.89;43.92
68609;SHT31;55581;46.718;7.690;2023-04-24T15:14:14;15.41;45.22
68609;SHT31;55581;46.718;7.690;2023-04-24T15:16:40;15.41;45.32
68609;SHT31;55581;46.718;7.690;2023-04-24T15:19:08;15.51;45.75
68609;SHT31;55581;46.718;7.690;2023-04-24T15:21:34;15.30;44.99
68609;SHT31;55581;46.718;7.690;2023-04-24T15:24:00;15.23;44.61
68609;SHT31;55581;46.718;7.690;2023-04-24T15:26:25;15.41;45.36
68609;SHT31;55581;46.718;7.690;2023-04-24T15:28:51;15.46;46.44
68609;SHT31;55581;46.718;7.690;2023-04-24T15:31:18;15.51;46.64
68609;SHT31;55581;46.718;7.690;2023-04-24T15:33:43;15.48;48.46
68609;SHT31;55581;46.718;7.690;2023-04-24T15:36:09;15.66;47.68
68609;SHT31;55581;46.718;7.690;2023-04-24T15:38:35;15.80;45.87
68609;SHT31;55581;46.718;7.690;2023-04-24T15:41:00;15.93;45.92
68609;SHT31;55581;46.718;7.690;2023-04-24T15:43:26;15.93;45.23
68609;SHT31;55581;46.718;7.690;2023-04-24T15:45:51;15.67;45.47